sensor_id;sensor_type;location;lat;lon;timestamp;pressure;altitude;pressure_sealevel;temperature;humidity
29467;BME280;60968;37.490;-122.288;2022-08-18T00:00:08;98378.66;;;26.52;46.54
29467;BME280;60968;37.490;-122.288;2022-08-18T00:03:10;98384.00;;;26.43;46.53
29467;BME280;60968;37.490;-122.288;2022-08-18T00:06:11;98385.66;;;26.34;46.71
29467;BME280;60968;37.490;-122.288;2022-08-18T00:09:14;98385.38;;;26.17;47.26
29467;BME280;60968;37.490;-122.288;2022-08-18T00:12:25;98390.56;;;25.88;47.04
29467;BME280;60968;37.490;-122.288;2022-08-18T00:15:27;98387.66;;;25.70;47.98
29467;BME280;60968;37.490;-122.288;2022-08-18T00:18:30;98386.97;;;25.47;47.54
29467;BME280;60968;37.490;-122.288;2022-08-18T00:21:32;98388.25;;;25.31;48.20
29467;BME280;60968;37.490;-122.288;2022-08-18T00:24:36;98384.28;;;25.26;48.86
29467;BME280;60968;37.490;-122.288;2022-08-18T00:27:38;98388.19;;;25.22;48.83
29467;BME280;60968;37.490;-122.288;2022-08-18T00:30:41;98387.75;;;25.16;49.51
29467;BME280;60968;37.490;-122.288;2022-08-18T00:33:41;98386.81;;;25.06;49.71
29467;BME280;60968;37.490;-122.288;2022-08-18T00:36:42;98387.63;;;25.18;50.01
29467;BME280;60968;37.490;-122.288;2022-08-18T00:39:43;98391.25;;;25.17;49.67
29467;BME280;60968;37.490;-122.288;2022-08-18T00:42:55;98386.06;;;25.15;50.70
29467;BME280;60968;37.490;-122.288;2022-08-18T00:45:57;98388.06;;;25.02;50.32
29467;BME280;60968;37.490;-122.288;2022-08-18T00:48:59;98395.97;;;24.71;51.13
29467;BME280;60968;37.490;-122.288;2022-08-18T00:52:01;98395.00;;;24.61;51.44
29467;BME280;60968;37.490;-122.288;2022-08-18T00:55:03;98391.97;;;24.65;51.99
29467;BME280;60968;37.490;-122.288;2022-08-18T00:58:19;98394.00;;;24.73;51.69
29467;BME280;60968;37.490;-122.288;2022-08-18T01:01:24;98396.19;;;24.68;51.58
29467;BME280;60968;37.490;-122.288;2022-08-18T01:04:42;98399.22;;;24.52;52.04
29467;BME280;60968;37.490;-122.288;2022-08-18T01:07:46;98401.13;;;24.29;53.15
29467;BME280;60968;37.490;-122.288;2022-08-18T01:10:48;98399.91;;;23.99;54.04
29467;BME280;60968;37.490;-122.288;2022-08-18T01:13:50;98400.91;;;23.98;54.50
29467;BME280;60968;37.490;-122.288;2022-08-18T01:16:51;98400.66;;;24.01;54.92
29467;BME280;60968;37.490;-122.288;2022-08-18T01:19:52;98392.28;;;23.83;55.21
29467;BME280;60968;37.490;-122.288;2022-08-18T01:23:05;98396.38;;;23.76;55.92
29467;BME280;60968;37.490;-122.288;2022-08-18T01:26:13;98393.09;;;23.50;56.83
29467;BME280;60968;37.490;-122.288;2022-08-18T01:29:18;98394.50;;;23.31;57.26
29467;BME280;60968;37.490;-122.288;2022-08-18T01:32:21;98399.06;;;23.18;57.96
29467;BME280;60968;37.490;-122.288;2022-08-18T01:35:25;98400.53;;;23.22;58.15
29467;BME280;60968;37.490;-122.288;2022-08-18T01:38:29;98390.38;;;23.16;58.52
29467;BME280;60968;37.490;-122.288;2022-08-18T01:41:31;98405.91;;;23.09;59.26
29467;BME280;60968;37.490;-122.288;2022-08-18T01:44:32;98407.44;;;23.00;60.00
29467;BME280;60968;37.490;-122.288;2022-08-18T01:47:34;98402.25;;;22.99;60.47
29467;BME280;60968;37.490;-122.288;2022-08-18T01:50:36;98401.72;;;22.93;60.91
29467;BME280;60968;37.490;-122.288;2022-08-18T01:53:40;98409.31;;;22.87;61.56
29467;BME280;60968;37.490;-122.288;2022-08-18T01:56:42;98402.03;;;22.77;61.87
29467;BME280;60968;37.490;-122.288;2022-08-18T01:59:44;98406.13;;;22.70;62.56
29467;BME280;60968;37.490;-122.288;2022-08-18T02:02:48;98402.53;;;22.58;62.98
29467;BME280;60968;37.490;-122.288;2022-08-18T02:05:50;98407.91;;;22.46;64.44
29467;BME280;60968;37.490;-122.288;2022-08-18T02:08:51;98404.75;;;22.40;65.21
29467;BME280;60968;37.490;-122.288;2022-08-18T02:11:52;98406.13;;;22.33;65.22
29467;BME280;60968;37.490;-122.288;2022-08-18T02:14:53;98406.25;;;22.19;66.88
29467;BME280;60968;37.490;-122.288;2022-08-18T02:17:54;98407.34;;;22.03;67.57
29467;BME280;60968;37.490;-122.288;2022-08-18T02:20:56;98405.13;;;21.97;68.35
29467;BME280;60968;37.490;-122.288;2022-08-18T02:23:58;98400.59;;;21.73;69.47
29467;BME280;60968;37.490;-122.288;2022-08-18T02:27:00;98403.78;;;21.66;70.01
29467;BME280;60968;37.490;-122.288;2022-08-18T02:30:03;98411.44;;;21.57;70.97
29467;BME280;60968;37.490;-122.288;2022-08-18T02:33:08;98413.28;;;21.42;71.41
29467;BME280;60968;37.490;-122.288;2022-08-18T02:36:11;98414.13;;;21.30;71.66
29467;BME280;60968;37.490;-122.288;2022-08-18T02:39:13;98407.66;;;21.21;70.84
29467;BME280;60968;37.490;-122.288;2022-08-18T02:42:14;98412.16;;;21.06;71.20
29467;BME280;60968;37.490;-122.288;2022-08-18T02:45:21;98410.63;;;20.89;71.52
29467;BME280;60968;37.490;-122.288;2022-08-18T02:48:23;98413.47;;;20.73;72.27
29467;BME280;60968;37.490;-122.288;2022-08-18T02:51:23;98418.25;;;20.67;73.08
29467;BME280;60968;37.490;-122.288;2022-08-18T02:54:24;98428.41;;;20.60;73.52
29467;BME280;60968;37.490;-122.288;2022-08-18T02:57:29;98422.38;;;20.58;74.26
29467;BME280;60968;37.490;-122.288;2022-08-18T03:00:30;98433.44;;;20.50;74.36
29467;BME280;60968;37.490;-122.288;2022-08-18T03:03:31;98434.97;;;20.40;73.88
29467;BME280;60968;37.490;-122.288;2022-08-18T03:06:35;98425.63;;;20.34;73.12
29467;BME280;60968;37.490;-122.288;2022-08-18T03:09:37;98429.31;;;20.32;74.32
29467;BME280;60968;37.490;-122.288;2022-08-18T03:12:37;98433.41;;;20.23;74.37
29467;BME280;60968;37.490;-122.288;2022-08-18T03:15:40;98432.00;;;20.03;74.32
29467;BME280;60968;37.490;-122.288;2022-08-18T03:18:42;98426.91;;;19.85;75.27
29467;BME280;60968;37.490;-122.288;2022-08-18T03:21:45;98436.06;;;19.80;75.35
29467;BME280;60968;37.490;-122.288;2022-08-18T03:24:47;98433.38;;;19.65;74.92
29467;BME280;60968;37.490;-122.288;2022-08-18T03:27:47;98435.25;;;19.49;76.09
29467;BME280;60968;37.490;-122.288;2022-08-18T03:30:48;98437.03;;;19.34;77.23
29467;BME280;60968;37.490;-122.288;2022-08-18T03:33:50;98444.75;;;19.23;77.04
29467;BME280;60968;37.490;-122.288;2022-08-18T03:36:51;98441.19;;;19.08;78.78
29467;BME280;60968;37.490;-122.288;2022-08-18T03:39:52;98443.00;;;19.07;78.14
29467;BME280;60968;37.490;-122.288;2022-08-18T03:42:53;98451.16;;;19.02;78.14
29467;BME280;60968;37.490;-122.288;2022-08-18T03:45:54;98460.56;;;18.92;78.82
29467;BME280;60968;37.490;-122.288;2022-08-18T03:48:56;98456.63;;;18.83;78.87
29467;BME280;60968;37.490;-122.288;2022-08-18T03:52:01;98455.38;;;18.75;79.39
29467;BME280;60968;37.490;-122.288;2022-08-18T03:55:03;98464.72;;;18.64;80.65
29467;BME280;60968;37.490;-122.288;2022-08-18T03:58:03;98471.09;;;18.60;80.64
29467;BME280;60968;37.490;-122.288;2022-08-18T04:01:04;98480.97;;;18.57;80.28
29467;BME280;60968;37.490;-122.288;2022-08-18T04:04:08;98472.03;;;18.43;80.89
29467;BME280;60968;37.490;-122.288;2022-08-18T04:07:11;98478.41;;;18.39;81.02
29467;BME280;60968;37.490;-122.288;2022-08-18T04:10:14;98480.94;;;18.25;81.33
29467;BME280;60968;37.490;-122.288;2022-08-18T04:13:15;98482.97;;;18.20;82.19
29467;BME280;60968;37.490;-122.288;2022-08-18T04:16:16;98487.88;;;18.10;82.86
29467;BME280;60968;37.490;-122.288;2022-08-18T04:19:17;98487.53;;;18.00;83.92
29467;BME280;60968;37.490;-122.288;2022-08-18T04:22:18;98497.22;;;17.99;83.73
29467;BME280;60968;37.490;-122.288;2022-08-18T04:25:19;98489.00;;;17.88;84.16
29467;BME280;60968;37.490;-122.288;2022-08-18T04:28:20;98484.84;;;17.66;84.63
29467;BME280;60968;37.490;-122.288;2022-08-18T04:31:21;98484.31;;;17.60;85.28
29467;BME280;60968;37.490;-122.288;2022-08-18T04:34:23;98485.47;;;17.54;86.51
29467;BME280;60968;37.490;-122.288;2022-08-18T04:37:24;98483.31;;;17.62;87.42
29467;BME280;60968;37.490;-122.288;2022-08-18T04:40:25;98488.47;;;17.81;87.68
29467;BME280;60968;37.490;-122.288;2022-08-18T04:43:26;98478.16;;;17.94;89.20
29467;BME280;60968;37.490;-122.288;2022-08-18T04:46:28;98484.66;;;18.05;90.18
29467;BME280;60968;37.490;-122.288;2022-08-18T04:49:32;98479.06;;;18.11;90.26
29467;BME280;60968;37.490;-122.288;2022-08-18T04:52:33;98487.94;;;18.26;90.19
29467;BME280;60968;37.490;-122.288;2022-08-18T04:55:33;98498.56;;;18.40;90.26
29467;BME280;60968;37.490;-122.288;2022-08-18T04:58:35;98504.88;;;18.38;89.32
29467;BME280;60968;37.490;-122.288;2022-08-18T05:01:39;98492.88;;;18.32;89.42
29467;BME280;60968;37.490;-122.288;2022-08-18T05:04:42;98496.28;;;18.34;89.27
29467;BME280;60968;37.490;-122.288;2022-08-18T05:07:44;98497.81;;;18.38;88.23
29467;BME280;60968;37.490;-122.288;2022-08-18T05:10:45;98503.41;;;18.32;87.68
29467;BME280;60968;37.490;-122.288;2022-08-18T05:13:48;98498.78;;;18.20;88.09
29467;BME280;60968;37.490;-122.288;2022-08-18T05:16:50;98494.69;;;18.14;87.82
29467;BME280;60968;37.490;-122.288;2022-08-18T05:19:50;98501.06;;;18.10;88.17
29467;BME280;60968;37.490;-122.288;2022-08-18T05:22:51;98502.50;;;17.99;88.65
29467;BME280;60968;37.490;-122.288;2022-08-18T05:26:03;98507.16;;;17.94;89.00
29467;BME280;60968;37.490;-122.288;2022-08-18T05:29:04;98509.78;;;17.94;88.61
29467;BME280;60968;37.490;-122.288;2022-08-18T05:32:07;98519.16;;;18.00;88.12
29467;BME280;60968;37.490;-122.288;2022-08-18T05:35:14;98506.75;;;18.02;87.64
29467;BME280;60968;37.490;-122.288;2022-08-18T05:42:13;98508.19;;;17.92;88.26
29467;BME280;60968;37.490;-122.288;2022-08-18T05:45:18;98508.53;;;17.84;88.74
29467;BME280;60968;37.490;-122.288;2022-08-18T05:48:19;98509.72;;;17.78;89.34
29467;BME280;60968;37.490;-122.288;2022-08-18T05:51:28;98519.41;;;17.78;89.92
29467;BME280;60968;37.490;-122.288;2022-08-18T05:54:52;98517.44;;;17.81;90.45
29467;BME280;60968;37.490;-122.288;2022-08-18T05:58:06;98513.88;;;17.82;90.60
29467;BME280;60968;37.490;-122.288;2022-08-18T06:01:19;98504.34;;;17.80;91.30
29467;BME280;60968;37.490;-122.288;2022-08-18T06:07:52;98498.53;;;17.73;92.11
29467;BME280;60968;37.490;-122.288;2022-08-18T06:10:54;98501.34;;;17.70;92.11
29467;BME280;60968;37.490;-122.288;2022-08-18T06:13:58;98500.75;;;17.65;91.64
29467;BME280;60968;37.490;-122.288;2022-08-18T06:17:21;98505.06;;;17.66;91.15
29467;BME280;60968;37.490;-122.288;2022-08-18T06:24:05;98494.84;;;17.60;90.65
29467;BME280;60968;37.490;-122.288;2022-08-18T06:37:08;98512.69;;;17.01;92.48
29467;BME280;60968;37.490;-122.288;2022-08-18T06:40:13;98501.69;;;16.92;93.18
29467;BME280;60968;37.490;-122.288;2022-08-18T06:43:15;98501.53;;;16.95;93.03
29467;BME280;60968;37.490;-122.288;2022-08-18T06:46:22;98513.13;;;16.91;93.14
29467;BME280;60968;37.490;-122.288;2022-08-18T06:49:50;98518.47;;;16.90;93.32
29467;BME280;60968;37.490;-122.288;2022-08-18T06:52:56;98515.00;;;16.89;92.85
29467;BME280;60968;37.490;-122.288;2022-08-18T06:55:57;98518.09;;;16.78;93.29
29467;BME280;60968;37.490;-122.288;2022-08-18T07:09:25;98519.75;;;16.43;95.68
29467;BME280;60968;37.490;-122.288;2022-08-18T07:12:34;98521.72;;;16.38;96.19
29467;BME280;60968;37.490;-122.288;2022-08-18T07:15:36;98527.41;;;16.28;97.29
29467;BME280;60968;37.490;-122.288;2022-08-18T07:18:37;98525.91;;;16.23;97.30
29467;BME280;60968;37.490;-122.288;2022-08-18T07:21:39;98527.25;;;16.12;98.88
29467;BME280;60968;37.490;-122.288;2022-08-18T07:24:45;98518.91;;;16.03;99.72
29467;BME280;60968;37.490;-122.288;2022-08-18T07:27:48;98510.38;;;15.98;100.00
29467;BME280;60968;37.490;-122.288;2022-08-18T07:30:49;98512.97;;;15.99;100.00
29467;BME280;60968;37.490;-122.288;2022-08-18T07:37:48;98518.13;;;16.01;100.00
29467;BME280;60968;37.490;-122.288;2022-08-18T07:40:37;98523.91;;;16.09;100.00
29467;BME280;60968;37.490;-122.288;2022-08-18T07:44:00;98514.38;;;16.06;100.00
29467;BME280;60968;37.490;-122.288;2022-08-18T07:47:29;98521.69;;;16.00;100.00
29467;BME280;60968;37.490;-122.288;2022-08-18T07:50:41;98523.47;;;15.99;100.00
29467;BME280;60968;37.490;-122.288;2022-08-18T08:06:44;98521.38;;;15.87;100.00
29467;BME280;60968;37.490;-122.288;2022-08-18T08:27:29;98525.22;;;15.78;100.00
29467;BME280;60968;37.490;-122.288;2022-08-18T08:30:23;98519.09;;;15.77;100.00
29467;BME280;60968;37.490;-122.288;2022-08-18T08:33:47;98532.09;;;15.82;100.00
29467;BME280;60968;37.490;-122.288;2022-08-18T08:36:57;98534.66;;;15.84;100.00
29467;BME280;60968;37.490;-122.288;2022-08-18T08:43:17;98539.47;;;15.72;100.00
29467;BME280;60968;37.490;-122.288;2022-08-18T08:46:25;98532.13;;;15.60;100.00
29467;BME280;60968;37.490;-122.288;2022-08-18T08:53:05;98531.88;;;15.44;100.00
29467;BME280;60968;37.490;-122.288;2022-08-18T08:56:13;98526.63;;;15.44;100.00
29467;BME280;60968;37.490;-122.288;2022-08-18T08:59:18;98526.75;;;15.41;100.00
29467;BME280;60968;37.490;-122.288;2022-08-18T09:05:27;98532.56;;;15.49;100.00
29467;BME280;60968;37.490;-122.288;2022-08-18T09:12:08;98531.56;;;15.52;100.00
29467;BME280;60968;37.490;-122.288;2022-08-18T09:19:00;98529.34;;;15.63;100.00
29467;BME280;60968;37.490;-122.288;2022-08-18T09:22:13;98527.31;;;15.70;100.00
29467;BME280;60968;37.490;-122.288;2022-08-18T09:25:52;98531.38;;;15.77;100.00
29467;BME280;60968;37.490;-122.288;2022-08-18T09:45:55;98543.47;;;15.60;100.00
29467;BME280;60968;37.490;-122.288;2022-08-18T10:01:32;98559.22;;;15.60;100.00
29467;BME280;60968;37.490;-122.288;2022-08-18T10:04:35;98554.22;;;15.54;100.00
29467;BME280;60968;37.490;-122.288;2022-08-18T10:07:39;98559.56;;;15.53;100.00
29467;BME280;60968;37.490;-122.288;2022-08-18T10:27:53;98547.41;;;15.28;100.00
29467;BME280;60968;37.490;-122.288;2022-08-18T10:34:05;98540.28;;;15.32;100.00
29467;BME280;60968;37.490;-122.288;2022-08-18T10:37:23;98538.78;;;15.26;100.00
29467;BME280;60968;37.490;-122.288;2022-08-18T10:40:26;98539.97;;;15.17;100.00
29467;BME280;60968;37.490;-122.288;2022-08-18T10:46:48;98545.41;;;15.13;100.00
29467;BME280;60968;37.490;-122.288;2022-08-18T10:49:50;98543.53;;;15.16;100.00
29467;BME280;60968;37.490;-122.288;2022-08-18T11:03:16;98548.22;;;15.08;100.00
29467;BME280;60968;37.490;-122.288;2022-08-18T11:06:23;98550.91;;;15.06;100.00
29467;BME280;60968;37.490;-122.288;2022-08-18T11:09:27;98548.09;;;15.11;100.00
29467;BME280;60968;37.490;-122.288;2022-08-18T11:16:16;98549.63;;;15.17;100.00
29467;BME280;60968;37.490;-122.288;2022-08-18T11:19:23;98547.97;;;15.14;100.00
29467;BME280;60968;37.490;-122.288;2022-08-18T11:22:30;98550.59;;;15.14;100.00
29467;BME280;60968;37.490;-122.288;2022-08-18T11:25:34;98546.31;;;15.12;100.00
29467;BME280;60968;37.490;-122.288;2022-08-18T11:28:36;98554.38;;;15.07;100.00
29467;BME280;60968;37.490;-122.288;2022-08-18T11:31:37;98546.72;;;15.02;100.00
29467;BME280;60968;37.490;-122.288;2022-08-18T11:34:44;98555.81;;;14.94;100.00
29467;BME280;60968;37.490;-122.288;2022-08-18T11:37:54;98558.91;;;14.81;100.00
29467;BME280;60968;37.490;-122.288;2022-08-18T11:41:15;98547.78;;;14.74;100.00
29467;BME280;60968;37.490;-122.288;2022-08-18T11:44:21;98550.59;;;14.70;100.00
29467;BME280;60968;37.490;-122.288;2022-08-18T11:47:24;98556.94;;;14.64;100.00
29467;BME280;60968;37.490;-122.288;2022-08-18T11:50:28;98555.22;;;14.62;100.00
29467;BME280;60968;37.490;-122.288;2022-08-18T11:53:40;98557.97;;;14.58;100.00
29467;BME280;60968;37.490;-122.288;2022-08-18T11:56:41;98545.91;;;14.54;100.00
29467;BME280;60968;37.490;-122.288;2022-08-18T11:59:42;98554.59;;;14.55;100.00
29467;BME280;60968;37.490;-122.288;2022-08-18T12:02:43;98561.50;;;14.57;100.00
29467;BME280;60968;37.490;-122.288;2022-08-18T12:05:49;98556.97;;;14.63;100.00
29467;BME280;60968;37.490;-122.288;2022-08-18T12:08:58;98549.31;;;14.56;100.00
29467;BME280;60968;37.490;-122.288;2022-08-18T12:18:27;98553.41;;;14.40;100.00
29467;BME280;60968;37.490;-122.288;2022-08-18T12:21:30;98552.78;;;14.33;100.00
29467;BME280;60968;37.490;-122.288;2022-08-18T12:24:32;98554.72;;;14.28;100.00
29467;BME280;60968;37.490;-122.288;2022-08-18T12:27:33;98564.44;;;14.24;100.00
29467;BME280;60968;37.490;-122.288;2022-08-18T12:30:35;98565.38;;;14.23;100.00
29467;BME280;60968;37.490;-122.288;2022-08-18T12:33:35;98571.47;;;14.24;100.00
29467;BME280;60968;37.490;-122.288;2022-08-18T12:36:37;98568.84;;;14.24;100.00
29467;BME280;60968;37.490;-122.288;2022-08-18T12:39:37;98576.69;;;14.24;100.00
29467;BME280;60968;37.490;-122.288;2022-08-18T12:42:41;98579.31;;;14.24;100.00
29467;BME280;60968;37.490;-122.288;2022-08-18T12:45:43;98578.53;;;14.22;100.00
29467;BME280;60968;37.490;-122.288;2022-08-18T12:48:44;98574.31;;;14.18;100.00
29467;BME280;60968;37.490;-122.288;2022-08-18T12:51:46;98581.47;;;14.13;100.00
29467;BME280;60968;37.490;-122.288;2022-08-18T12:54:48;98576.53;;;14.05;100.00
29467;BME280;60968;37.490;-122.288;2022-08-18T12:57:49;98588.84;;;14.01;100.00
29467;BME280;60968;37.490;-122.288;2022-08-18T13:00:51;98586.34;;;13.98;100.00
29467;BME280;60968;37.490;-122.288;2022-08-18T13:03:54;98589.81;;;13.99;100.00
29467;BME280;60968;37.490;-122.288;2022-08-18T13:06:57;98594.88;;;14.03;100.00
29467;BME280;60968;37.490;-122.288;2022-08-18T13:09:58;98603.38;;;14.10;100.00
29467;BME280;60968;37.490;-122.288;2022-08-18T13:12:59;98601.59;;;14.12;100.00
29467;BME280;60968;37.490;-122.288;2022-08-18T13:16:00;98604.22;;;14.12;100.00
29467;BME280;60968;37.490;-122.288;2022-08-18T13:19:02;98612.13;;;14.11;100.00
29467;BME280;60968;37.490;-122.288;2022-08-18T13:22:04;98612.06;;;14.12;100.00
29467;BME280;60968;37.490;-122.288;2022-08-18T13:25:07;98612.78;;;14.16;100.00
29467;BME280;60968;37.490;-122.288;2022-08-18T13:28:10;98633.75;;;14.16;100.00
29467;BME280;60968;37.490;-122.288;2022-08-18T13:31:11;98632.81;;;14.18;100.00
29467;BME280;60968;37.490;-122.288;2022-08-18T13:34:12;98631.06;;;14.17;100.00
29467;BME280;60968;37.490;-122.288;2022-08-18T13:37:13;98624.19;;;14.15;100.00
29467;BME280;60968;37.490;-122.288;2022-08-18T13:40:22;98633.97;;;14.10;100.00
29467;BME280;60968;37.490;-122.288;2022-08-18T13:43:29;98637.56;;;14.07;100.00
29467;BME280;60968;37.490;-122.288;2022-08-18T13:46:31;98644.81;;;13.99;100.00
29467;BME280;60968;37.490;-122.288;2022-08-18T13:49:32;98647.19;;;14.06;100.00
29467;BME280;60968;37.490;-122.288;2022-08-18T13:52:33;98643.22;;;13.95;100.00
29467;BME280;60968;37.490;-122.288;2022-08-18T13:55:33;98649.03;;;14.03;100.00
29467;BME280;60968;37.490;-122.288;2022-08-18T13:58:34;98648.25;;;14.01;100.00
29467;BME280;60968;37.490;-122.288;2022-08-18T14:01:35;98650.88;;;14.01;100.00
29467;BME280;60968;37.490;-122.288;2022-08-18T14:04:38;98657.13;;;13.97;100.00
29467;BME280;60968;37.490;-122.288;2022-08-18T14:07:39;98652.50;;;14.03;100.00
29467;BME280;60968;37.490;-122.288;2022-08-18T14:10:39;98652.78;;;13.96;100.00
29467;BME280;60968;37.490;-122.288;2022-08-18T14:13:40;98661.78;;;14.14;100.00
29467;BME280;60968;37.490;-122.288;2022-08-18T14:16:42;98661.63;;;14.18;100.00
29467;BME280;60968;37.490;-122.288;2022-08-18T14:19:43;98653.38;;;14.04;100.00
29467;BME280;60968;37.490;-122.288;2022-08-18T14:22:44;98659.41;;;14.06;100.00
29467;BME280;60968;37.490;-122.288;2022-08-18T14:25:46;98660.34;;;14.05;100.00
29467;BME280;60968;37.490;-122.288;2022-08-18T14:28:49;98659.22;;;14.12;100.00
29467;BME280;60968;37.490;-122.288;2022-08-18T14:31:51;98667.09;;;14.12;100.00
29467;BME280;60968;37.490;-122.288;2022-08-18T14:34:52;98660.97;;;14.12;100.00
29467;BME280;60968;37.490;-122.288;2022-08-18T14:37:53;98661.03;;;14.10;100.00
29467;BME280;60968;37.490;-122.288;2022-08-18T14:40:54;98662.22;;;14.27;100.00
29467;BME280;60968;37.490;-122.288;2022-08-18T14:43:55;98673.44;;;14.30;100.00
29467;BME280;60968;37.490;-122.288;2022-08-18T14:46:57;98671.44;;;14.37;100.00
29467;BME280;60968;37.490;-122.288;2022-08-18T14:49:58;98666.88;;;14.44;100.00
29467;BME280;60968;37.490;-122.288;2022-08-18T14:53:00;98668.16;;;14.57;100.00
29467;BME280;60968;37.490;-122.288;2022-08-18T14:56:03;98674.91;;;14.64;100.00
29467;BME280;60968;37.490;-122.288;2022-08-18T14:59:05;98670.91;;;14.52;100.00
29467;BME280;60968;37.490;-122.288;2022-08-18T15:02:09;98680.72;;;14.72;100.00
29467;BME280;60968;37.490;-122.288;2022-08-18T15:05:12;98686.59;;;14.79;100.00
29467;BME280;60968;37.490;-122.288;2022-08-18T15:08:14;98689.66;;;14.90;100.00
29467;BME280;60968;37.490;-122.288;2022-08-18T15:11:15;98692.09;;;14.97;100.00
29467;BME280;60968;37.490;-122.288;2022-08-18T15:14:16;98688.44;;;15.01;100.00
29467;BME280;60968;37.490;-122.288;2022-08-18T15:17:17;98687.63;;;14.99;100.00
29467;BME280;60968;37.490;-122.288;2022-08-18T15:20:22;98689.78;;;15.11;100.00
29467;BME280;60968;37.490;-122.288;2022-08-18T15:23:26;98681.81;;;15.14;100.00
29467;BME280;60968;37.490;-122.288;2022-08-18T15:26:27;98679.28;;;15.35;100.00
29467;BME280;60968;37.490;-122.288;2022-08-18T15:29:33;98686.84;;;15.42;100.00
29467;BME280;60968;37.490;-122.288;2022-08-18T15:32:34;98686.78;;;15.44;100.00
29467;BME280;60968;37.490;-122.288;2022-08-18T15:35:36;98687.59;;;15.46;100.00
29467;BME280;60968;37.490;-122.288;2022-08-18T15:38:38;98694.50;;;15.49;100.00
29467;BME280;60968;37.490;-122.288;2022-08-18T15:41:41;98693.47;;;15.53;100.00
29467;BME280;60968;37.490;-122.288;2022-08-18T15:44:50;98694.31;;;15.53;100.00
29467;BME280;60968;37.490;-122.288;2022-08-18T15:47:53;98704.00;;;15.73;100.00
29467;BME280;60968;37.490;-122.288;2022-08-18T15:50:56;98704.81;;;15.75;100.00
29467;BME280;60968;37.490;-122.288;2022-08-18T15:53:57;98699.53;;;15.98;100.00
29467;BME280;60968;37.490;-122.288;2022-08-18T15:56:58;98696.34;;;16.11;100.00
29467;BME280;60968;37.490;-122.288;2022-08-18T16:00:00;98695.66;;;16.08;100.00
29467;BME280;60968;37.490;-122.288;2022-08-18T16:03:06;98691.78;;;16.37;100.00
29467;BME280;60968;37.490;-122.288;2022-08-18T16:06:14;98699.72;;;16.56;100.00
29467;BME280;60968;37.490;-122.288;2022-08-18T16:09:15;98694.66;;;16.72;100.00
29467;BME280;60968;37.490;-122.288;2022-08-18T16:12:17;98696.50;;;16.91;100.00
29467;BME280;60968;37.490;-122.288;2022-08-18T16:15:21;98705.19;;;17.12;100.00
29467;BME280;60968;37.490;-122.288;2022-08-18T16:18:24;98710.09;;;16.80;100.00
29467;BME280;60968;37.490;-122.288;2022-08-18T16:21:26;98708.81;;;17.47;100.00
29467;BME280;60968;37.490;-122.288;2022-08-18T16:24:28;98710.53;;;17.85;99.10
29467;BME280;60968;37.490;-122.288;2022-08-18T16:27:29;98715.63;;;18.42;95.83
29467;BME280;60968;37.490;-122.288;2022-08-18T16:30:30;98716.72;;;21.35;76.74
29467;BME280;60968;37.490;-122.288;2022-08-18T16:33:31;98707.38;;;24.03;62.32
29467;BME280;60968;37.490;-122.288;2022-08-18T16:36:32;98711.09;;;26.39;54.96
29467;BME280;60968;37.490;-122.288;2022-08-18T16:39:35;98711.38;;;26.45;51.87
29467;BME280;60968;37.490;-122.288;2022-08-18T16:42:36;98707.31;;;26.09;53.39
29467;BME280;60968;37.490;-122.288;2022-08-18T16:45:39;98705.88;;;26.37;51.50
29467;BME280;60968;37.490;-122.288;2022-08-18T16:48:40;98701.56;;;25.03;56.79
29467;BME280;60968;37.490;-122.288;2022-08-18T16:51:41;98698.72;;;23.14;62.20
29467;BME280;60968;37.490;-122.288;2022-08-18T16:54:44;98700.53;;;22.36;63.79
29467;BME280;60968;37.490;-122.288;2022-08-18T16:57:45;98703.66;;;22.28;67.63
29467;BME280;60968;37.490;-122.288;2022-08-18T17:00:46;98707.63;;;21.54;70.16
29467;BME280;60968;37.490;-122.288;2022-08-18T17:03:48;98705.94;;;22.07;68.66
29467;BME280;60968;37.490;-122.288;2022-08-18T17:06:50;98704.88;;;21.55;70.00
29467;BME280;60968;37.490;-122.288;2022-08-18T17:09:51;98705.38;;;22.02;69.21
29467;BME280;60968;37.490;-122.288;2022-08-18T17:12:53;98705.13;;;22.20;67.87
29467;BME280;60968;37.490;-122.288;2022-08-18T17:15:55;98708.88;;;22.43;67.02
29467;BME280;60968;37.490;-122.288;2022-08-18T17:18:56;98702.25;;;22.63;65.88
29467;BME280;60968;37.490;-122.288;2022-08-18T17:21:58;98702.34;;;22.74;65.41
29467;BME280;60968;37.490;-122.288;2022-08-18T17:25:00;98704.00;;;23.64;62.96
29467;BME280;60968;37.490;-122.288;2022-08-18T17:28:02;98698.91;;;25.48;56.80
29467;BME280;60968;37.490;-122.288;2022-08-18T17:31:04;98695.81;;;28.52;47.58
29467;BME280;60968;37.490;-122.288;2022-08-18T17:34:08;98698.50;;;30.19;43.38
29467;BME280;60968;37.490;-122.288;2022-08-18T17:37:14;98694.25;;;32.32;38.67
29467;BME280;60968;37.490;-122.288;2022-08-18T17:40:45;98701.97;;;32.85;35.24
29467;BME280;60968;37.490;-122.288;2022-08-18T17:43:43;98688.84;;;32.81;36.07
29467;BME280;60968;37.490;-122.288;2022-08-18T17:46:44;98687.66;;;32.51;35.95
29467;BME280;60968;37.490;-122.288;2022-08-18T17:49:46;98688.09;;;33.44;34.38
29467;BME280;60968;37.490;-122.288;2022-08-18T17:52:51;98680.97;;;34.29;32.62
29467;BME280;60968;37.490;-122.288;2022-08-18T17:56:04;98679.31;;;34.43;31.93
29467;BME280;60968;37.490;-122.288;2022-08-18T17:59:21;98687.91;;;34.23;31.64
29467;BME280;60968;37.490;-122.288;2022-08-18T18:02:27;98678.59;;;33.16;33.96
29467;BME280;60968;37.490;-122.288;2022-08-18T18:05:38;98678.56;;;34.87;31.04